Warning: Javascript must be enabled to use all the features on this page!


Page Loading - Please Wait...

* We've detected you're using a mobile device. Find our Next Generation Station Page here.
Click to hideNews Bulletins

Peak Streamflow for the Nation

USGS 11453000 YOLO BYPASS NR WOODLAND CA

Yolo County, California
Hydrologic Unit Code 18020163
Latitude  38°40'40", Longitude 121°38'35" NAD27
Output formats
Table
Graph
Tab-separated file
peakfq (watstore) format
Reselect output format
Water
Year
Date Gage
Height
(feet)
Stream-
flow
(cfs)
1942 1942-02-08 32.00 272,0006,7
1951 1950-11-22 29.18 133,0006
1952 1952-02-04 26.95 63,8006
1953 1953-01-15 27.55 83,2006
1954 1954-02-19 25.91 41,4006
1955 1954-12-08 16.23 1,2906
1956 1955-12-23 31.60 253,0006
1957 1957-02-28 25.70 41,9006
1958 1958-02-27 30.05 180,0006
1959 1959-02-20 26.15 52,5006
1960 1960-02-09 27.06 73,6006
1961 1961-02-02 20.32 3,9706
1962 1962-02-16 27.03 72,6006
1963 1962-10-15 30.80 170,0006
1964 1964-01-22 19.92 3,4206
1965 1964-12-25 32.48 265,0006
1966 1966-01-05 25.53 11,0006
1967 1967-02-01 28.52 125,0006
1968 1968-02-28 24.76 19,6006
1969 1969-01-27 28.74 112,0006
1970 1970-01-25 30.90 228,0006
1971 1970-12-05 25.64 33,3006
1972 1972-02-07 12.39 4486
1973 1973-01-19 28.24 112,0006
1974 1974-01-20 29.35 160,0006
1975 1975-03-25 25.70 36,5006
1976 1976-03-04 12.16 3026
1977 1976-11-24 11.00 48.06
1978 1978-01-18 27.67 85,6006
1979 1979-02-24 21.12 5,4306
1980 1980-02-22 29.96 190,0006
1981 1981-01-29 21.67 7,0906
1982 1981-12-22 28.53 109,0006
1983 1983-03-04 31.88 240,0006
1984 1983-12-28 30.09 192,0006
1985 1984-11-29 19.40 3,6806
1986 1986-02-20 34.87 374,0006
1987 1987-02-16 17.35 1,7806
1988 1988-01-05 20.64 3,9906
1989 1989-03-13 20.20 3,7806
1990 1990   1,0004,6,Bm
1991 1991-03-27 20.07 3,1706
1992 1992-02-21 19.54 2,7206
1993 1993-03-27 27.23 55,3006
1994 1994-02-10 17.96 1,8406
1995 1995-03-13 30.94 210,0006
1996 1996-02-24 27.96 94,4006
1997 1997-01-03 34.84 357,0006
1998 1998-02-08 30.65 166,0006
1999 1999-02-10 26.47 33,9006
2000 2000-02-15 27.38 68,5006
2001 2001-03-06 20.79 5,2206
2002 2002-01-06 26.18 36,4006
2003 2003-01-03 25.52 26,5006
2004 2004-02-28 27.81 107,0006
2005 2005-05-23 22.63 8,7006
2006 2006-01-01 31.97 228,0006
2007 2007-02-14 17.64 2,7006
2008 2008-01-27 22.49 6,7306
2009 2009-03-06 19.18 2,6906
2010 2010-01-27 22.38 7,3706
2011 2011-03-25 28.69 95,9006
2012 2012-01-25 16.45 1,3106
2013 2012-12-27 24.50 16,5006
2014 2014   0.006,Bm
2015 2014-12-24 21.12 5,0506
2016 2016-03-15 27.78 81,5006
2017 2017-02-21 31.342 199,0006
2018 2018-04-10 20.83 4,5906
2019 2019-03-03 28.24 70,1006
2020 2019-12-02 15.30 9746
?
  Peak Gage-Height Qualification Codes.
?
  Peak Streamflow Qualification Codes.